sensor_id;sensor_type;location;lat;lon;timestamp;pressure;altitude;pressure_sealevel;temperature;humidity
42335;BME280;27986;42.700;24.178;2022-12-08T00:00:10;93722.69;;;3.32;100.00
42335;BME280;27986;42.700;24.178;2022-12-08T00:02:36;93719.25;;;3.23;100.00
42335;BME280;27986;42.700;24.178;2022-12-08T00:05:02;93722.25;;;3.54;100.00
42335;BME280;27986;42.700;24.178;2022-12-08T00:07:46;93734.09;;;3.70;100.00
42335;BME280;27986;42.700;24.178;2022-12-08T00:10:30;93733.53;;;3.65;100.00
42335;BME280;27986;42.700;24.178;2022-12-08T00:12:55;93729.63;;;3.78;100.00
42335;BME280;27986;42.700;24.178;2022-12-08T00:15:21;93739.78;;;3.60;100.00
42335;BME280;27986;42.700;24.178;2022-12-08T00:17:46;93747.59;;;3.56;100.00
42335;BME280;27986;42.700;24.178;2022-12-08T00:20:11;93740.31;;;3.44;100.00
42335;BME280;27986;42.700;24.178;2022-12-08T00:22:37;93739.50;;;3.38;100.00
42335;BME280;27986;42.700;24.178;2022-12-08T00:25:03;93760.91;;;3.32;100.00
42335;BME280;27986;42.700;24.178;2022-12-08T00:27:29;93730.78;;;3.01;100.00
42335;BME280;27986;42.700;24.178;2022-12-08T00:29:54;93739.78;;;3.25;100.00
42335;BME280;27986;42.700;24.178;2022-12-08T00:32:20;93728.84;;;3.22;100.00
42335;BME280;27986;42.700;24.178;2022-12-08T00:34:45;93732.41;;;3.07;100.00
42335;BME280;27986;42.700;24.178;2022-12-08T00:37:10;93711.03;;;2.84;100.00
42335;BME280;27986;42.700;24.178;2022-12-08T00:39:36;93721.38;;;2.98;100.00
42335;BME280;27986;42.700;24.178;2022-12-08T00:42:01;93729.84;;;2.89;100.00
42335;BME280;27986;42.700;24.178;2022-12-08T00:44:36;93728.66;;;3.10;100.00
42335;BME280;27986;42.700;24.178;2022-12-08T00:47:01;93718.19;;;3.20;100.00
42335;BME280;27986;42.700;24.178;2022-12-08T00:49:27;93724.06;;;3.07;100.00
42335;BME280;27986;42.700;24.178;2022-12-08T00:51:52;93744.47;;;3.34;100.00
42335;BME280;27986;42.700;24.178;2022-12-08T00:54:18;93745.50;;;3.51;100.00
42335;BME280;27986;42.700;24.178;2022-12-08T00:56:44;93737.59;;;3.64;100.00
42335;BME280;27986;42.700;24.178;2022-12-08T00:59:10;93718.03;;;3.44;100.00
42335;BME280;27986;42.700;24.178;2022-12-08T01:01:35;93743.97;;;3.50;100.00
42335;BME280;27986;42.700;24.178;2022-12-08T01:04:03;93728.25;;;3.18;100.00
42335;BME280;27986;42.700;24.178;2022-12-08T01:06:29;93717.94;;;2.74;100.00
42335;BME280;27986;42.700;24.178;2022-12-08T01:08:54;93720.06;;;2.64;100.00
42335;BME280;27986;42.700;24.178;2022-12-08T01:11:20;93723.69;;;2.56;100.00
42335;BME280;27986;42.700;24.178;2022-12-08T01:13:45;93737.25;;;2.63;100.00
42335;BME280;27986;42.700;24.178;2022-12-08T01:16:24;93711.91;;;2.61;100.00
42335;BME280;27986;42.700;24.178;2022-12-08T01:18:50;93711.44;;;2.62;100.00
42335;BME280;27986;42.700;24.178;2022-12-08T01:21:17;93708.25;;;2.69;100.00
42335;BME280;27986;42.700;24.178;2022-12-08T01:23:42;93737.91;;;2.87;100.00
42335;BME280;27986;42.700;24.178;2022-12-08T01:26:10;93733.50;;;2.95;100.00
42335;BME280;27986;42.700;24.178;2022-12-08T01:28:36;93704.50;;;2.87;100.00
42335;BME280;27986;42.700;24.178;2022-12-08T01:31:02;93691.63;;;2.90;99.62
42335;BME280;27986;42.700;24.178;2022-12-08T01:33:28;93728.31;;;2.88;99.48
42335;BME280;27986;42.700;24.178;2022-12-08T01:35:53;93701.72;;;2.72;100.00
42335;BME280;27986;42.700;24.178;2022-12-08T01:38:22;93699.31;;;2.80;100.00
42335;BME280;27986;42.700;24.178;2022-12-08T01:40:48;93701.50;;;2.76;100.00
42335;BME280;27986;42.700;24.178;2022-12-08T01:43:16;93715.34;;;2.56;100.00
42335;BME280;27986;42.700;24.178;2022-12-08T01:45:42;93705.75;;;2.57;100.00
42335;BME280;27986;42.700;24.178;2022-12-08T01:48:12;93708.25;;;2.40;99.88
42335;BME280;27986;42.700;24.178;2022-12-08T01:50:42;93706.22;;;2.40;100.00
42335;BME280;27986;42.700;24.178;2022-12-08T01:53:11;93712.56;;;2.41;100.00
42335;BME280;27986;42.700;24.178;2022-12-08T01:55:42;93699.50;;;2.32;100.00
42335;BME280;27986;42.700;24.178;2022-12-08T01:58:16;93714.09;;;2.57;100.00
42335;BME280;27986;42.700;24.178;2022-12-08T02:00:43;93695.56;;;2.24;100.00
42335;BME280;27986;42.700;24.178;2022-12-08T02:03:15;93727.34;;;2.08;100.00
42335;BME280;27986;42.700;24.178;2022-12-08T02:05:45;93707.06;;;1.54;100.00
42335;BME280;27986;42.700;24.178;2022-12-08T02:08:12;93720.72;;;1.43;100.00
42335;BME280;27986;42.700;24.178;2022-12-08T02:10:41;93734.84;;;1.54;100.00
42335;BME280;27986;42.700;24.178;2022-12-08T02:13:13;93725.59;;;1.24;100.00
42335;BME280;27986;42.700;24.178;2022-12-08T02:21:20;93708.81;;;1.42;100.00
42335;BME280;27986;42.700;24.178;2022-12-08T02:40:52;93735.78;;;2.82;100.00
42335;BME280;27986;42.700;24.178;2022-12-08T02:46:46;93742.91;;;2.53;100.00
42335;BME280;27986;42.700;24.178;2022-12-08T02:49:12;93703.25;;;2.29;100.00
42335;BME280;27986;42.700;24.178;2022-12-08T02:51:39;93716.78;;;2.51;100.00
42335;BME280;27986;42.700;24.178;2022-12-08T02:54:05;93742.38;;;2.40;100.00
42335;BME280;27986;42.700;24.178;2022-12-08T03:05:12;93738.28;;;2.36;100.00
42335;BME280;27986;42.700;24.178;2022-12-08T03:07:21;93740.00;;;2.48;100.00
42335;BME280;27986;42.700;24.178;2022-12-08T03:14:52;93728.88;;;2.48;100.00
42335;BME280;27986;42.700;24.178;2022-12-08T03:17:23;93692.19;;;1.81;100.00
42335;BME280;27986;42.700;24.178;2022-12-08T03:19:51;93697.13;;;1.86;100.00
42335;BME280;27986;42.700;24.178;2022-12-08T03:22:21;93698.75;;;1.93;100.00
42335;BME280;27986;42.700;24.178;2022-12-08T03:24:48;93706.72;;;1.85;100.00
42335;BME280;27986;42.700;24.178;2022-12-08T03:27:33;93674.41;;;1.64;100.00
42335;BME280;27986;42.700;24.178;2022-12-08T03:29:59;93678.50;;;1.78;100.00
42335;BME280;27986;42.700;24.178;2022-12-08T03:34:55;93697.72;;;2.05;98.75
42335;BME280;27986;42.700;24.178;2022-12-08T03:37:22;93684.13;;;2.07;98.51
42335;BME280;27986;42.700;24.178;2022-12-08T03:39:48;93684.72;;;2.26;97.66
42335;BME280;27986;42.700;24.178;2022-12-08T03:42:14;93707.94;;;2.38;97.36
42335;BME280;27986;42.700;24.178;2022-12-08T03:44:39;93715.00;;;2.09;98.57
42335;BME280;27986;42.700;24.178;2022-12-08T03:47:05;93690.59;;;1.89;99.83
42335;BME280;27986;42.700;24.178;2022-12-08T03:49:30;93704.88;;;2.21;98.37
42335;BME280;27986;42.700;24.178;2022-12-08T03:51:55;93701.00;;;2.04;97.28
42335;BME280;27986;42.700;24.178;2022-12-08T03:54:21;93706.91;;;1.96;97.16
42335;BME280;27986;42.700;24.178;2022-12-08T03:56:46;93677.94;;;1.88;97.63
42335;BME280;27986;42.700;24.178;2022-12-08T03:59:12;93680.31;;;1.81;96.36
42335;BME280;27986;42.700;24.178;2022-12-08T04:01:37;93692.47;;;1.68;97.33
42335;BME280;27986;42.700;24.178;2022-12-08T04:04:03;93695.28;;;1.83;97.38
42335;BME280;27986;42.700;24.178;2022-12-08T04:06:28;93696.75;;;1.93;97.34
42335;BME280;27986;42.700;24.178;2022-12-08T04:08:54;93701.00;;;2.18;97.37
42335;BME280;27986;42.700;24.178;2022-12-08T04:11:20;93717.56;;;2.37;95.93
42335;BME280;27986;42.700;24.178;2022-12-08T04:13:45;93698.69;;;2.17;96.32
42335;BME280;27986;42.700;24.178;2022-12-08T04:16:21;93710.38;;;2.06;96.87
42335;BME280;27986;42.700;24.178;2022-12-08T04:18:47;93692.59;;;1.89;97.50
42335;BME280;27986;42.700;24.178;2022-12-08T04:21:13;93705.56;;;1.92;97.90
42335;BME280;27986;42.700;24.178;2022-12-08T04:23:38;93694.03;;;1.84;98.16
42335;BME280;27986;42.700;24.178;2022-12-08T04:26:04;93697.41;;;1.64;99.97
42335;BME280;27986;42.700;24.178;2022-12-08T04:28:30;93706.72;;;1.85;100.00
42335;BME280;27986;42.700;24.178;2022-12-08T04:30:56;93703.94;;;2.00;99.96
42335;BME280;27986;42.700;24.178;2022-12-08T04:33:21;93699.78;;;1.57;100.00
42335;BME280;27986;42.700;24.178;2022-12-08T04:35:47;93714.81;;;1.17;100.00
42335;BME280;27986;42.700;24.178;2022-12-08T04:38:12;93707.00;;;1.06;100.00
42335;BME280;27986;42.700;24.178;2022-12-08T04:40:38;93716.75;;;1.02;100.00
42335;BME280;27986;42.700;24.178;2022-12-08T04:43:04;93714.75;;;1.02;100.00
42335;BME280;27986;42.700;24.178;2022-12-08T04:45:30;93712.72;;;0.70;100.00
42335;BME280;27986;42.700;24.178;2022-12-08T04:47:55;93696.56;;;0.50;100.00
42335;BME280;27986;42.700;24.178;2022-12-08T04:50:21;93701.16;;;0.71;100.00
42335;BME280;27986;42.700;24.178;2022-12-08T04:52:46;93703.31;;;1.09;100.00
42335;BME280;27986;42.700;24.178;2022-12-08T04:55:12;93708.63;;;1.22;100.00
42335;BME280;27986;42.700;24.178;2022-12-08T04:57:37;93688.69;;;1.00;100.00
42335;BME280;27986;42.700;24.178;2022-12-08T05:00:04;93704.75;;;0.96;100.00
42335;BME280;27986;42.700;24.178;2022-12-08T05:02:30;93703.72;;;0.84;100.00
42335;BME280;27986;42.700;24.178;2022-12-08T05:04:56;93702.06;;;1.10;100.00
42335;BME280;27986;42.700;24.178;2022-12-08T05:07:22;93725.28;;;1.55;100.00
42335;BME280;27986;42.700;24.178;2022-12-08T05:09:47;93693.75;;;1.34;100.00
42335;BME280;27986;42.700;24.178;2022-12-08T05:12:13;93725.69;;;1.39;100.00
42335;BME280;27986;42.700;24.178;2022-12-08T05:14:38;93720.75;;;1.10;100.00
42335;BME280;27986;42.700;24.178;2022-12-08T05:17:04;93713.13;;;1.20;100.00
42335;BME280;27986;42.700;24.178;2022-12-08T05:19:29;93723.03;;;1.45;100.00
42335;BME280;27986;42.700;24.178;2022-12-08T05:21:55;93735.97;;;1.15;100.00
42335;BME280;27986;42.700;24.178;2022-12-08T05:24:20;93729.53;;;0.57;100.00
42335;BME280;27986;42.700;24.178;2022-12-08T05:26:45;93709.00;;;0.73;100.00
42335;BME280;27986;42.700;24.178;2022-12-08T05:29:11;93718.78;;;1.01;100.00
42335;BME280;27986;42.700;24.178;2022-12-08T05:31:36;93737.72;;;1.03;100.00
42335;BME280;27986;42.700;24.178;2022-12-08T05:34:02;93717.41;;;0.97;100.00
42335;BME280;27986;42.700;24.178;2022-12-08T05:36:27;93728.13;;;0.71;100.00
42335;BME280;27986;42.700;24.178;2022-12-08T05:38:55;93746.50;;;0.50;100.00
42335;BME280;27986;42.700;24.178;2022-12-08T05:41:21;93730.47;;;0.54;100.00
42335;BME280;27986;42.700;24.178;2022-12-08T05:43:47;93756.06;;;0.40;100.00
42335;BME280;27986;42.700;24.178;2022-12-08T05:46:13;93765.03;;;0.35;100.00
42335;BME280;27986;42.700;24.178;2022-12-08T05:48:39;93767.91;;;0.49;100.00
42335;BME280;27986;42.700;24.178;2022-12-08T05:51:16;93761.63;;;0.40;100.00
42335;BME280;27986;42.700;24.178;2022-12-08T05:53:42;93759.16;;;0.42;100.00
42335;BME280;27986;42.700;24.178;2022-12-08T05:56:07;93757.31;;;0.48;100.00
42335;BME280;27986;42.700;24.178;2022-12-08T05:58:33;93761.75;;;0.54;100.00
42335;BME280;27986;42.700;24.178;2022-12-08T06:00:58;93770.84;;;0.55;100.00
42335;BME280;27986;42.700;24.178;2022-12-08T06:03:24;93759.38;;;0.80;100.00
42335;BME280;27986;42.700;24.178;2022-12-08T06:05:49;93746.19;;;1.08;100.00
42335;BME280;27986;42.700;24.178;2022-12-08T06:08:15;93745.94;;;1.30;100.00
42335;BME280;27986;42.700;24.178;2022-12-08T06:10:43;93760.28;;;1.62;100.00
42335;BME280;27986;42.700;24.178;2022-12-08T06:13:09;93774.00;;;2.67;100.00
42335;BME280;27986;42.700;24.178;2022-12-08T06:15:36;93776.41;;;3.68;100.00
42335;BME280;27986;42.700;24.178;2022-12-08T06:18:06;93769.91;;;4.12;100.00
42335;BME280;27986;42.700;24.178;2022-12-08T06:20:32;93759.53;;;3.77;100.00
42335;BME280;27986;42.700;24.178;2022-12-08T06:22:58;93773.19;;;3.55;99.01
42335;BME280;27986;42.700;24.178;2022-12-08T06:25:24;93759.56;;;3.27;98.33
42335;BME280;27986;42.700;24.178;2022-12-08T06:27:49;93757.34;;;3.46;95.88
42335;BME280;27986;42.700;24.178;2022-12-08T06:30:16;93780.16;;;3.65;93.66
42335;BME280;27986;42.700;24.178;2022-12-08T06:32:42;93790.03;;;3.46;92.08
42335;BME280;27986;42.700;24.178;2022-12-08T06:35:20;93795.81;;;2.83;95.28
42335;BME280;27986;42.700;24.178;2022-12-08T06:37:45;93783.78;;;2.62;99.65
42335;BME280;27986;42.700;24.178;2022-12-08T06:40:11;93789.66;;;2.79;99.53
42335;BME280;27986;42.700;24.178;2022-12-08T06:42:37;93782.84;;;3.09;99.18
42335;BME280;27986;42.700;24.178;2022-12-08T06:45:18;93784.84;;;3.24;97.73
42335;BME280;27986;42.700;24.178;2022-12-08T06:47:46;93774.38;;;3.33;95.74
42335;BME280;27986;42.700;24.178;2022-12-08T06:50:13;93775.94;;;3.20;95.35
42335;BME280;27986;42.700;24.178;2022-12-08T06:52:38;93756.00;;;3.27;96.97
42335;BME280;27986;42.700;24.178;2022-12-08T06:55:06;93757.91;;;3.50;94.96
42335;BME280;27986;42.700;24.178;2022-12-08T06:57:31;93744.66;;;3.45;93.43
42335;BME280;27986;42.700;24.178;2022-12-08T06:59:57;93757.22;;;3.55;93.47
42335;BME280;27986;42.700;24.178;2022-12-08T07:02:23;93779.75;;;4.07;92.12
42335;BME280;27986;42.700;24.178;2022-12-08T07:04:48;93738.66;;;4.08;90.96
42335;BME280;27986;42.700;24.178;2022-12-08T07:07:15;93733.81;;;4.29;89.75
42335;BME280;27986;42.700;24.178;2022-12-08T07:09:43;93770.66;;;4.33;87.78
42335;BME280;27986;42.700;24.178;2022-12-08T07:12:09;93787.84;;;4.05;89.83
42335;BME280;27986;42.700;24.178;2022-12-08T07:14:34;93790.53;;;3.79;92.01
42335;BME280;27986;42.700;24.178;2022-12-08T07:17:01;93786.91;;;3.93;93.55
42335;BME280;27986;42.700;24.178;2022-12-08T07:19:26;93784.59;;;3.92;94.25
42335;BME280;27986;42.700;24.178;2022-12-08T07:21:52;93780.38;;;3.97;94.06
42335;BME280;27986;42.700;24.178;2022-12-08T07:24:17;93785.00;;;3.85;92.63
42335;BME280;27986;42.700;24.178;2022-12-08T07:26:43;93785.09;;;3.90;93.75
42335;BME280;27986;42.700;24.178;2022-12-08T07:29:09;93778.47;;;4.29;93.82
42335;BME280;27986;42.700;24.178;2022-12-08T07:31:35;93781.56;;;4.31;89.24
42335;BME280;27986;42.700;24.178;2022-12-08T07:34:00;93802.78;;;4.89;89.86
42335;BME280;27986;42.700;24.178;2022-12-08T07:36:26;93801.19;;;5.34;88.64
42335;BME280;27986;42.700;24.178;2022-12-08T07:38:52;93798.78;;;5.53;86.58
42335;BME280;27986;42.700;24.178;2022-12-08T07:41:22;93792.81;;;5.72;84.24
42335;BME280;27986;42.700;24.178;2022-12-08T07:43:48;93773.59;;;5.85;83.29
42335;BME280;27986;42.700;24.178;2022-12-08T07:46:16;93809.66;;;6.09;82.34
42335;BME280;27986;42.700;24.178;2022-12-08T07:48:42;93778.50;;;5.96;81.35
42335;BME280;27986;42.700;24.178;2022-12-08T07:51:09;93778.66;;;6.18;81.50
42335;BME280;27986;42.700;24.178;2022-12-08T07:53:37;93784.22;;;6.12;81.52
42335;BME280;27986;42.700;24.178;2022-12-08T07:56:08;93805.25;;;6.39;82.58
42335;BME280;27986;42.700;24.178;2022-12-08T07:58:34;93787.69;;;6.44;82.00
42335;BME280;27986;42.700;24.178;2022-12-08T08:00:59;93813.44;;;6.54;81.78
42335;BME280;27986;42.700;24.178;2022-12-08T08:03:25;93786.66;;;6.42;82.41
42335;BME280;27986;42.700;24.178;2022-12-08T08:05:52;93779.88;;;6.71;81.18
42335;BME280;27986;42.700;24.178;2022-12-08T08:08:18;93769.97;;;6.64;81.25
42335;BME280;27986;42.700;24.178;2022-12-08T08:10:44;93791.84;;;6.66;83.13
42335;BME280;27986;42.700;24.178;2022-12-08T08:13:10;93786.06;;;6.86;83.41
42335;BME280;27986;42.700;24.178;2022-12-08T08:15:36;93770.03;;;7.03;81.96
42335;BME280;27986;42.700;24.178;2022-12-08T08:18:01;93783.28;;;6.97;81.86
42335;BME280;27986;42.700;24.178;2022-12-08T08:20:27;93777.59;;;6.69;84.84
42335;BME280;27986;42.700;24.178;2022-12-08T08:22:52;93780.19;;;6.84;83.26
42335;BME280;27986;42.700;24.178;2022-12-08T08:25:19;93794.06;;;6.45;85.94
42335;BME280;27986;42.700;24.178;2022-12-08T08:27:47;93781.91;;;6.11;90.48
42335;BME280;27986;42.700;24.178;2022-12-08T08:30:14;93758.56;;;6.19;90.72
42335;BME280;27986;42.700;24.178;2022-12-08T08:32:40;93765.28;;;5.90;92.57
42335;BME280;27986;42.700;24.178;2022-12-08T08:35:05;93767.19;;;5.42;93.95
42335;BME280;27986;42.700;24.178;2022-12-08T08:37:31;93785.03;;;5.18;97.99
42335;BME280;27986;42.700;24.178;2022-12-08T08:39:56;93791.34;;;5.13;98.43
42335;BME280;27986;42.700;24.178;2022-12-08T08:42:22;93786.53;;;4.88;100.00
42335;BME280;27986;42.700;24.178;2022-12-08T08:44:48;93776.75;;;4.77;100.00
42335;BME280;27986;42.700;24.178;2022-12-08T08:47:13;93779.38;;;4.87;100.00
42335;BME280;27986;42.700;24.178;2022-12-08T08:49:39;93779.84;;;4.79;100.00
42335;BME280;27986;42.700;24.178;2022-12-08T08:52:04;93789.16;;;5.23;100.00
42335;BME280;27986;42.700;24.178;2022-12-08T08:54:30;93773.41;;;5.25;100.00
42335;BME280;27986;42.700;24.178;2022-12-08T08:56:57;93762.47;;;5.22;100.00
42335;BME280;27986;42.700;24.178;2022-12-08T08:59:23;93759.25;;;5.34;100.00
42335;BME280;27986;42.700;24.178;2022-12-08T09:01:49;93754.53;;;5.52;100.00
42335;BME280;27986;42.700;24.178;2022-12-08T09:04:14;93730.91;;;5.90;99.70
42335;BME280;27986;42.700;24.178;2022-12-08T09:06:40;93745.63;;;6.33;95.22
42335;BME280;27986;42.700;24.178;2022-12-08T09:09:07;93773.38;;;6.37;94.76
42335;BME280;27986;42.700;24.178;2022-12-08T09:11:33;93770.75;;;6.16;92.58
42335;BME280;27986;42.700;24.178;2022-12-08T09:13:58;93771.19;;;6.63;95.05
42335;BME280;27986;42.700;24.178;2022-12-08T09:16:24;93754.50;;;6.26;95.87
42335;BME280;27986;42.700;24.178;2022-12-08T09:18:50;93748.59;;;6.13;96.22
42335;BME280;27986;42.700;24.178;2022-12-08T09:21:18;93750.22;;;6.36;98.06
42335;BME280;27986;42.700;24.178;2022-12-08T09:23:51;93755.25;;;6.97;100.00
42335;BME280;27986;42.700;24.178;2022-12-08T09:26:17;93765.19;;;8.05;96.18
42335;BME280;27986;42.700;24.178;2022-12-08T09:28:46;93742.53;;;7.19;90.63
42335;BME280;27986;42.700;24.178;2022-12-08T09:31:13;93734.09;;;7.02;90.88
42335;BME280;27986;42.700;24.178;2022-12-08T09:33:38;93732.53;;;6.73;93.57
42335;BME280;27986;42.700;24.178;2022-12-08T09:36:04;93737.19;;;7.21;93.57
42335;BME280;27986;42.700;24.178;2022-12-08T09:38:30;93750.19;;;7.91;88.16
42335;BME280;27986;42.700;24.178;2022-12-08T09:40:56;93738.56;;;8.45;86.83
42335;BME280;27986;42.700;24.178;2022-12-08T09:45:53;93749.34;;;8.18;85.92
42335;BME280;27986;42.700;24.178;2022-12-08T09:48:24;93717.44;;;8.16;81.31
42335;BME280;27986;42.700;24.178;2022-12-08T09:50:55;93741.97;;;8.10;83.20
42335;BME280;27986;42.700;24.178;2022-12-08T09:55:55;93748.06;;;8.25;84.56
42335;BME280;27986;42.700;24.178;2022-12-08T09:58:42;93736.34;;;8.10;84.01
42335;BME280;27986;42.700;24.178;2022-12-08T10:01:12;93746.75;;;8.37;83.50
42335;BME280;27986;42.700;24.178;2022-12-08T10:03:39;93722.03;;;8.13;85.67
42335;BME280;27986;42.700;24.178;2022-12-08T10:06:30;93748.34;;;8.05;88.13
42335;BME280;27986;42.700;24.178;2022-12-08T10:14:46;93739.97;;;7.82;90.47
42335;BME280;27986;42.700;24.178;2022-12-08T10:17:44;93731.06;;;7.39;92.93
42335;BME280;27986;42.700;24.178;2022-12-08T10:20:18;93740.50;;;7.64;92.67
42335;BME280;27986;42.700;24.178;2022-12-08T10:22:50;93712.44;;;7.70;91.84
42335;BME280;27986;42.700;24.178;2022-12-08T10:25:37;93728.25;;;7.45;94.42
42335;BME280;27986;42.700;24.178;2022-12-08T10:28:06;93736.34;;;7.99;93.85
42335;BME280;27986;42.700;24.178;2022-12-08T10:30:32;93711.56;;;8.14;90.49
42335;BME280;27986;42.700;24.178;2022-12-08T10:32:58;93715.88;;;8.15;91.25
42335;BME280;27986;42.700;24.178;2022-12-08T10:35:24;93715.63;;;8.18;89.96
42335;BME280;27986;42.700;24.178;2022-12-08T10:40:44;93717.22;;;8.72;86.90
42335;BME280;27986;42.700;24.178;2022-12-08T10:43:17;93687.59;;;8.71;86.00
42335;BME280;27986;42.700;24.178;2022-12-08T10:45:45;93696.88;;;9.01;84.07
42335;BME280;27986;42.700;24.178;2022-12-08T10:48:27;93677.44;;;9.34;82.59
42335;BME280;27986;42.700;24.178;2022-12-08T10:50:56;93708.13;;;9.67;80.99
42335;BME280;27986;42.700;24.178;2022-12-08T10:53:27;93707.25;;;9.48;79.30
42335;BME280;27986;42.700;24.178;2022-12-08T10:58:39;93686.38;;;9.02;85.39
42335;BME280;27986;42.700;24.178;2022-12-08T11:01:12;93679.78;;;9.59;82.92
42335;BME280;27986;42.700;24.178;2022-12-08T11:03:43;93690.75;;;9.63;81.07
42335;BME280;27986;42.700;24.178;2022-12-08T11:06:36;93686.03;;;9.47;82.56
42335;BME280;27986;42.700;24.178;2022-12-08T11:11:53;93682.91;;;10.05;78.90
42335;BME280;27986;42.700;24.178;2022-12-08T11:14:27;93683.25;;;9.96;78.06
42335;BME280;27986;42.700;24.178;2022-12-08T11:17:04;93678.44;;;10.15;78.93
42335;BME280;27986;42.700;24.178;2022-12-08T11:19:36;93670.75;;;9.91;78.80
42335;BME280;27986;42.700;24.178;2022-12-08T11:22:19;93681.75;;;9.95;78.86
42335;BME280;27986;42.700;24.178;2022-12-08T11:24:45;93672.53;;;9.70;77.98
42335;BME280;27986;42.700;24.178;2022-12-08T11:27:20;93678.38;;;9.72;78.26
42335;BME280;27986;42.700;24.178;2022-12-08T11:29:45;93678.94;;;9.95;77.60
42335;BME280;27986;42.700;24.178;2022-12-08T11:32:12;93659.66;;;9.74;79.02
42335;BME280;27986;42.700;24.178;2022-12-08T11:34:43;93657.22;;;9.90;80.12
42335;BME280;27986;42.700;24.178;2022-12-08T11:39:59;93626.91;;;10.20;77.23
42335;BME280;27986;42.700;24.178;2022-12-08T11:42:31;93646.88;;;10.22;76.07
42335;BME280;27986;42.700;24.178;2022-12-08T11:45:11;93629.09;;;10.52;76.14
42335;BME280;27986;42.700;24.178;2022-12-08T11:47:50;93656.44;;;10.94;73.96
42335;BME280;27986;42.700;24.178;2022-12-08T11:50:23;93627.47;;;10.75;73.80
42335;BME280;27986;42.700;24.178;2022-12-08T11:52:50;93620.94;;;10.48;74.62
42335;BME280;27986;42.700;24.178;2022-12-08T11:55:36;93608.72;;;10.59;73.64
42335;BME280;27986;42.700;24.178;2022-12-08T12:01:22;93639.69;;;11.15;71.22
42335;BME280;27986;42.700;24.178;2022-12-08T12:04:31;93626.94;;;10.95;72.24
42335;BME280;27986;42.700;24.178;2022-12-08T12:09:37;93619.19;;;11.15;71.61
42335;BME280;27986;42.700;24.178;2022-12-08T12:22:44;93578.09;;;11.19;70.48
42335;BME280;27986;42.700;24.178;2022-12-08T12:25:20;93586.47;;;11.38;69.97
42335;BME280;27986;42.700;24.178;2022-12-08T12:27:48;93616.78;;;11.51;70.02
42335;BME280;27986;42.700;24.178;2022-12-08T12:30:24;93620.63;;;11.67;69.88
42335;BME280;27986;42.700;24.178;2022-12-08T12:33:00;93613.34;;;11.26;71.07
42335;BME280;27986;42.700;24.178;2022-12-08T12:35:45;93603.25;;;10.85;74.10
42335;BME280;27986;42.700;24.178;2022-12-08T12:38:30;93603.59;;;10.95;75.51
42335;BME280;27986;42.700;24.178;2022-12-08T12:41:21;93616.66;;;10.79;76.26
42335;BME280;27986;42.700;24.178;2022-12-08T13:02:19;93609.03;;;10.74;77.06
42335;BME280;27986;42.700;24.178;2022-12-08T13:05:02;93589.00;;;10.59;76.74
42335;BME280;27986;42.700;24.178;2022-12-08T13:07:42;93600.28;;;10.40;78.30
42335;BME280;27986;42.700;24.178;2022-12-08T13:10:19;93611.94;;;10.50;78.12
42335;BME280;27986;42.700;24.178;2022-12-08T13:13:02;93610.13;;;10.71;78.30
42335;BME280;27986;42.700;24.178;2022-12-08T13:15:37;93613.53;;;10.83;76.41
42335;BME280;27986;42.700;24.178;2022-12-08T13:18:15;93592.44;;;10.70;77.08
42335;BME280;27986;42.700;24.178;2022-12-08T13:20:47;93604.09;;;10.61;76.77
42335;BME280;27986;42.700;24.178;2022-12-08T13:23:25;93602.34;;;10.39;77.92
42335;BME280;27986;42.700;24.178;2022-12-08T13:25:54;93602.59;;;10.17;80.15
42335;BME280;27986;42.700;24.178;2022-12-08T13:28:32;93605.16;;;10.39;78.98
42335;BME280;27986;42.700;24.178;2022-12-08T13:31:01;93602.34;;;10.39;79.39
42335;BME280;27986;42.700;24.178;2022-12-08T13:33:37;93605.31;;;10.28;78.96
42335;BME280;27986;42.700;24.178;2022-12-08T13:36:18;93610.25;;;9.98;81.04
42335;BME280;27986;42.700;24.178;2022-12-08T13:38:46;93617.25;;;9.91;81.34
42335;BME280;27986;42.700;24.178;2022-12-08T13:41:19;93619.78;;;9.95;81.64
42335;BME280;27986;42.700;24.178;2022-12-08T13:43:51;93626.81;;;10.07;80.88
42335;BME280;27986;42.700;24.178;2022-12-08T13:46:30;93606.41;;;10.01;80.26
42335;BME280;27986;42.700;24.178;2022-12-08T13:48:59;93633.78;;;10.00;83.78
42335;BME280;27986;42.700;24.178;2022-12-08T13:51:28;93620.53;;;9.95;84.46
42335;BME280;27986;42.700;24.178;2022-12-08T13:54:21;93619.44;;;9.79;85.22
42335;BME280;27986;42.700;24.178;2022-12-08T13:56:50;93622.88;;;9.91;85.11
42335;BME280;27986;42.700;24.178;2022-12-08T14:01:46;93640.22;;;10.20;83.53
42335;BME280;27986;42.700;24.178;2022-12-08T14:04:21;93629.44;;;10.24;81.67
42335;BME280;27986;42.700;24.178;2022-12-08T14:07:05;93627.44;;;10.19;81.77
42335;BME280;27986;42.700;24.178;2022-12-08T14:09:35;93633.13;;;10.13;82.66
42335;BME280;27986;42.700;24.178;2022-12-08T14:12:07;93617.56;;;9.87;82.66
42335;BME280;27986;42.700;24.178;2022-12-08T14:14:42;93625.88;;;9.50;85.10
42335;BME280;27986;42.700;24.178;2022-12-08T14:17:14;93645.34;;;9.48;86.59
42335;BME280;27986;42.700;24.178;2022-12-08T14:19:44;93628.66;;;9.25;87.92
42335;BME280;27986;42.700;24.178;2022-12-08T14:22:15;93643.81;;;9.47;88.18
42335;BME280;27986;42.700;24.178;2022-12-08T14:24:46;93648.38;;;9.50;87.82
42335;BME280;27986;42.700;24.178;2022-12-08T14:27:18;93637.22;;;9.39;88.20
42335;BME280;27986;42.700;24.178;2022-12-08T14:29:47;93649.41;;;9.22;89.19
42335;BME280;27986;42.700;24.178;2022-12-08T14:37:26;93636.16;;;8.82;91.58
42335;BME280;27986;42.700;24.178;2022-12-08T14:39:56;93637.06;;;9.01;91.43
42335;BME280;27986;42.700;24.178;2022-12-08T14:42:24;93648.66;;;9.16;90.30
42335;BME280;27986;42.700;24.178;2022-12-08T14:45:04;93637.38;;;8.92;91.23
42335;BME280;27986;42.700;24.178;2022-12-08T14:47:32;93620.84;;;8.77;91.35
42335;BME280;27986;42.700;24.178;2022-12-08T14:49:59;93652.50;;;8.42;94.58